createdAt,value
2022-09-12T00:04:28.700Z,100351.47
2022-09-12T00:09:30.584Z,100349.00
2022-09-12T00:14:31.254Z,100344.72
2022-09-12T00:19:31.982Z,100346.34
2022-09-12T00:24:34.323Z,100342.72
2022-09-12T00:29:34.907Z,100343.50
2022-09-12T00:34:37.146Z,100346.78
2022-09-12T00:39:39.166Z,100352.69
2022-09-12T00:44:45.725Z,100343.38
2022-09-12T00:49:50.803Z,100336.63
2022-09-12T00:54:58.234Z,100336.91
2022-09-12T01:00:02.767Z,100335.28
2022-09-12T01:05:03.364Z,100331.00
2022-09-12T01:10:06.453Z,100331.28
2022-09-12T01:15:07.552Z,100326.22
2022-09-12T01:20:28.357Z,100328.16
2022-09-12T01:25:36.348Z,100322.06
2022-09-12T01:30:49.137Z,100325.75
2022-09-12T01:36:03.644Z,100328.25
2022-09-12T01:41:12.711Z,100326.50
2022-09-12T01:46:18.475Z,100321.22
2022-09-12T01:51:26.234Z,100316.97
2022-09-12T01:56:29.691Z,100316.91
2022-09-12T02:01:34.065Z,100309.97
2022-09-12T02:06:39.477Z,100312.56
2022-09-12T02:11:45.333Z,100311.69
2022-09-12T02:16:50.892Z,100309.22
2022-09-12T02:21:55.273Z,100302.16
2022-09-12T02:26:58.817Z,100294.38
2022-09-12T02:32:05.780Z,100304.75
2022-09-12T02:37:14.084Z,100296.41
2022-09-12T02:42:14.825Z,100298.22
2022-09-12T02:47:22.912Z,100289.56
2022-09-12T02:52:23.741Z,100290.59
2022-09-12T02:57:24.311Z,100294.00
2022-09-12T03:02:33.273Z,100294.91
2022-09-12T03:07:50.693Z,100298.41
2022-09-12T03:13:02.285Z,100298.22
2022-09-12T03:18:21.006Z,100296.53
2022-09-12T03:23:30.246Z,100299.16
2022-09-12T03:28:32.318Z,100300.00
2022-09-12T03:33:34.339Z,100304.06
2022-09-12T03:38:34.889Z,100301.41
2022-09-12T03:43:35.489Z,100301.44
2022-09-12T03:48:37.504Z,100293.94
2022-09-12T03:53:38.287Z,100299.03
2022-09-12T03:58:39.470Z,100305.94
2022-09-12T04:03:42.093Z,100309.22
2022-09-12T04:08:43.723Z,100303.31
2022-09-12T04:13:46.187Z,100303.25
2022-09-12T04:18:48.394Z,100307.63
2022-09-12T04:23:49.541Z,100310.19
2022-09-12T04:28:54.657Z,100304.06
2022-09-12T04:33:57.885Z,100309.34
2022-09-12T04:39:00.273Z,100311.00
2022-09-12T04:44:03.147Z,100304.97
2022-09-12T04:49:05.895Z,100310.25
2022-09-12T04:54:09.003Z,100311.94
2022-09-12T04:59:11.342Z,100316.97
2022-09-12T05:04:14.381Z,100322.06
2022-09-12T05:09:15.854Z,100319.47
2022-09-12T05:14:16.445Z,100322.78
2022-09-12T05:19:19.392Z,100322.41
2022-09-12T05:24:20.094Z,100335.13
2022-09-12T05:29:20.681Z,100336.91
2022-09-12T05:34:23.385Z,100338.38
2022-09-12T05:39:24.617Z,100331.47
2022-09-12T05:44:25.566Z,100343.47
2022-09-12T05:49:27.612Z,100350.34
2022-09-12T05:54:31.490Z,100355.06
2022-09-12T05:59:32.864Z,100361.66
2022-09-12T06:04:34.766Z,100357.34
2022-09-12T06:09:35.462Z,100355.38
2022-09-12T06:14:36.247Z,100355.59
2022-09-12T06:19:38.123Z,100355.16
2022-09-12T06:24:38.750Z,100361.06
2022-09-12T06:29:39.464Z,100365.16
2022-09-12T06:34:41.625Z,100361.34
2022-09-12T06:39:42.245Z,100366.25
2022-09-12T06:44:42.860Z,100363.22
2022-09-12T06:49:44.773Z,100365.28
2022-09-12T06:54:46.366Z,100368.31
2022-09-12T06:59:46.925Z,100369.34
2022-09-12T07:04:49.995Z,100374.28
2022-09-12T07:09:50.598Z,100375.97
2022-09-12T07:14:51.162Z,100382.88
2022-09-12T07:19:53.072Z,100387.28
2022-09-12T07:24:54.083Z,100391.34
2022-09-12T07:29:55.013Z,100390.34
2022-09-12T07:34:56.916Z,100396.31
2022-09-12T07:39:57.743Z,100395.53
2022-09-12T07:44:58.399Z,100385.63
2022-09-12T07:50:00.357Z,100393.22
2022-09-12T07:55:00.984Z,100392.72
2022-09-12T08:00:01.604Z,100392.34
2022-09-12T08:05:03.655Z,100397.34
2022-09-12T08:10:04.674Z,100395.75
2022-09-12T08:15:06.282Z,100401.06
2022-09-12T08:20:09.281Z,100406.81
2022-09-12T08:25:10.493Z,100398.88
2022-09-12T08:30:12.215Z,100409.19
2022-09-12T08:35:15.092Z,100413.59
2022-09-12T08:40:18.981Z,100400.16
2022-09-12T08:45:24.240Z,100396.94
2022-09-12T08:50:26.258Z,100398.88
2022-09-12T08:55:32.124Z,100392.19
2022-09-12T09:00:42.272Z,100397.53
2022-09-12T09:05:51.278Z,100394.53
2022-09-12T09:10:58.402Z,100386.53
2022-09-12T09:16:09.918Z,100383.88
2022-09-12T09:21:23.477Z,100392.34
2022-09-12T09:26:29.105Z,100389.16
2022-09-12T09:31:34.368Z,100389.47
2022-09-12T09:36:45.547Z,100371.66
2022-09-12T09:41:53.735Z,100381.34
2022-09-12T09:46:56.916Z,100377.16
2022-09-12T09:52:00.978Z,100377.81
2022-09-12T09:57:01.659Z,100373.75
2022-09-12T10:02:04.891Z,100373.19
2022-09-12T10:07:07.448Z,100357.91
2022-09-12T10:12:22.085Z,100367.81
2022-09-12T10:17:28.699Z,100360.47
2022-09-12T10:22:33.885Z,100362.47
2022-09-12T10:27:36.635Z,100363.53
2022-09-12T10:32:42.206Z,100358.91
2022-09-12T10:37:53.688Z,100360.25
2022-09-12T10:42:56.381Z,100357.50
2022-09-12T10:48:02.084Z,100348.78
2022-09-12T10:53:20.725Z,100338.66
2022-09-12T10:58:46.072Z,100328.28
2022-09-12T11:04:05.425Z,100331.38
2022-09-12T11:09:16.814Z,100314.66
2022-09-12T11:14:28.950Z,100307.88
2022-09-12T11:19:56.082Z,100312.47
2022-09-12T11:25:14.500Z,100314.72
2022-09-12T11:30:17.463Z,100311.50
2022-09-12T11:35:24.485Z,100305.44
2022-09-12T11:40:33.252Z,100312.88
2022-09-12T11:45:38.457Z,100310.94
2022-09-12T11:50:39.030Z,100310.34
2022-09-12T11:55:51.953Z,100307.84
2022-09-12T12:00:56.304Z,100311.56
2022-09-12T12:06:04.219Z,100312.31
2022-09-12T12:11:08.788Z,100311.81
2022-09-12T12:16:15.516Z,100304.66
2022-09-12T12:21:40.586Z,100306.19
2022-09-12T12:27:01.750Z,100301.31
2022-09-12T12:32:21.200Z,100295.28
2022-09-12T12:37:55.846Z,100282.25
2022-09-12T12:43:20.306Z,100286.56
2022-09-12T12:48:22.204Z,100282.25
2022-09-12T12:53:27.685Z,100281.38
2022-09-12T12:58:36.297Z,100275.75
2022-09-12T13:03:38.766Z,100270.28
2022-09-12T13:08:41.419Z,100254.53
2022-09-12T13:13:51.251Z,100255.38
2022-09-12T13:18:52.772Z,100243.91
2022-09-12T13:24:02.097Z,100236.59
2022-09-12T13:29:17.270Z,100237.78
2022-09-12T13:34:21.427Z,100232.75
2022-09-12T13:39:27.414Z,100226.66
2022-09-12T13:44:30.565Z,100227.59
2022-09-12T13:49:34.966Z,100231.22
2022-09-12T13:54:39.849Z,100228.69
2022-09-12T13:59:42.674Z,100219.63
2022-09-12T14:05:05.813Z,100221.53
2022-09-12T14:10:07.507Z,100214.47
2022-09-12T14:15:18.112Z,100220.03
2022-09-12T14:20:20.642Z,100220.00
2022-09-12T14:25:25.134Z,100216.94
2022-09-12T14:30:30.390Z,100212.47
2022-09-12T14:35:32.487Z,100205.78
2022-09-12T14:40:33.473Z,100208.06
2022-09-12T14:45:35.446Z,100197.97
2022-09-12T14:50:37.182Z,100201.84
2022-09-12T14:55:45.172Z,100195.47
2022-09-12T15:00:59.953Z,100191.16
2022-09-12T15:06:02.853Z,100180.88
2022-09-12T15:11:03.592Z,100185.91
2022-09-12T15:16:05.800Z,100180.53
2022-09-12T15:21:08.849Z,100180.31
2022-09-12T15:26:12.607Z,100176.50
2022-09-12T15:31:23.229Z,100179.03
2022-09-12T15:36:31.351Z,100181.03
2022-09-12T15:41:35.573Z,100175.97
2022-09-12T15:46:37.671Z,100177.59
2022-09-12T15:51:38.458Z,100173.19
2022-09-12T15:56:39.049Z,100168.44
2022-09-12T16:01:41.246Z,100173.63
2022-09-12T16:06:41.966Z,100175.22
2022-09-12T16:11:42.630Z,100178.59
2022-09-12T16:16:46.195Z,100172.03
2022-09-12T16:21:46.789Z,100155.72
2022-09-12T16:26:47.370Z,100157.22
2022-09-12T16:31:49.316Z,100155.41
2022-09-12T16:36:49.997Z,100151.34
2022-09-12T16:41:50.588Z,100147.47
2022-09-12T16:46:52.900Z,100138.88
2022-09-12T16:51:53.457Z,100138.53
2022-09-12T16:56:54.125Z,100129.63
2022-09-12T17:01:56.050Z,100136.47
2022-09-12T17:06:59.383Z,100125.31
2022-09-12T17:12:01.419Z,100124.16
2022-09-12T17:17:04.742Z,100124.56
2022-09-12T17:22:05.407Z,100118.59
2022-09-12T17:27:06.334Z,100118.28
2022-09-12T17:32:08.265Z,100123.88
2022-09-12T17:37:09.563Z,100121.78
2022-09-12T17:42:10.140Z,100120.34
2022-09-12T17:47:12.025Z,100118.25
2022-09-12T17:52:13.248Z,100116.13
2022-09-12T17:57:14.361Z,100113.63
2022-09-12T18:02:16.738Z,100126.09
2022-09-12T18:07:19.881Z,100121.81
2022-09-12T18:12:20.859Z,100132.34
2022-09-12T18:17:23.868Z,100124.94
2022-09-12T18:22:24.492Z,100127.00
2022-09-12T18:27:25.404Z,100122.00
2022-09-12T18:32:27.357Z,100121.28
2022-09-12T18:37:28.064Z,100128.59
2022-09-12T18:42:28.732Z,100127.88
2022-09-12T18:47:30.713Z,100125.97
2022-09-12T18:52:31.332Z,100120.13
2022-09-12T18:57:34.973Z,100126.84
2022-09-12T19:02:36.943Z,100134.13
2022-09-12T19:07:38.818Z,100125.69
2022-09-12T19:12:39.437Z,100119.25
2022-09-12T19:17:41.418Z,100119.44
2022-09-12T19:22:42.000Z,100115.56
2022-09-12T19:27:42.610Z,100114.03
2022-09-12T19:32:45.319Z,100117.06
2022-09-12T19:37:46.473Z,100116.19
2022-09-12T19:42:47.048Z,100112.84
2022-09-12T19:47:49.078Z,100114.22
2022-09-12T19:52:49.655Z,100104.84
2022-09-12T19:57:50.267Z,100102.59
2022-09-12T20:02:52.656Z,100096.03
2022-09-12T20:07:53.425Z,100095.19
2022-09-12T20:12:53.985Z,100096.34
2022-09-12T20:17:56.949Z,100104.38
2022-09-12T20:22:57.534Z,100097.59
2022-09-12T20:28:00.155Z,100098.53
2022-09-12T20:33:02.397Z,100102.19
2022-09-12T20:38:03.000Z,100098.09
2022-09-12T20:43:03.648Z,100093.03
2022-09-12T20:48:05.630Z,100085.59
2022-09-12T20:53:06.244Z,100082.13
2022-09-12T20:58:06.881Z,100080.63
2022-09-12T21:03:09.196Z,100078.94
2022-09-12T21:08:10.064Z,100081.69
2022-09-12T21:13:11.070Z,100075.69
2022-09-12T21:18:12.957Z,100074.22
2022-09-12T21:23:13.526Z,100069.16
2022-09-12T21:28:14.271Z,100065.06
2022-09-12T21:33:16.346Z,100065.06
2022-09-12T21:38:17.755Z,100066.03
2022-09-12T21:43:18.319Z,100057.50
2022-09-12T21:48:20.204Z,100062.53
2022-09-12T21:53:20.764Z,100053.44
2022-09-12T21:58:21.354Z,100047.44
2022-09-12T22:03:23.265Z,100046.69
2022-09-12T22:08:23.818Z,100044.91
2022-09-12T22:13:24.385Z,100035.47
2022-09-12T22:18:26.299Z,100035.66
2022-09-12T22:23:43.632Z,100023.75
2022-09-12T22:28:44.744Z,100015.34
2022-09-12T22:33:46.656Z,100019.75
2022-09-12T22:38:47.287Z,100013.91
2022-09-12T22:43:48.015Z,100014.88
2022-09-12T22:48:49.907Z,99999.00
2022-09-12T22:53:51.442Z,99987.81
2022-09-12T22:58:52.063Z,99982.63
2022-09-12T23:03:54.123Z,99971.56
2022-09-12T23:08:56.111Z,99971.78
2022-09-12T23:13:56.727Z,99967.47
2022-09-12T23:18:59.107Z,99970.88
2022-09-12T23:23:59.655Z,99967.72
2022-09-12T23:29:02.455Z,99968.41
2022-09-12T23:34:06.782Z,99957.72
2022-09-12T23:39:07.378Z,99966.25
2022-09-12T23:44:08.090Z,99965.47
2022-09-12T23:49:10.134Z,99943.25
2022-09-12T23:54:10.681Z,99943.44
2022-09-12T23:59:11.224Z,99936.78
